Priwall — V2OX8 — position and weather

sailwx.info

Track history (hours):
 
Tides and Currents Weather Stations Pressure Air Temp Water Temp Dewpoint Dewpoint Depression Visibility Wind Speed Wind Dir Waves Ship Positions

Priwall

Last reported at 2017-Feb-23 11:18 UTC. Time now 2017-Feb-24 00:00 UTC.
Position N 35°56' W 005°08'.

Length 88 m; draft 5.6 m.

Type: Ship. MMSI: 304739000.

Date/timePositionNaut miles runAvg speedWind from/ knotsBaromVisibWave heightAir tempDewpointWater temp
2017-Feb-23 11:18N 35°56' W 005°08'7 9.7
2017-Feb-23 10:33N 35°55' W 005°17'2 2.2
2017-Feb-23 09:33N 35°54' W 005°19'0 0.0
2017-Feb-23 08:33N 35°54' W 005°19'0 0.0
2017-Feb-23 07:33N 35°54' W 005°19'0 0.2
2017-Feb-23 06:33N 35°54' W 005°19'3 3.3
2017-Feb-23 05:33N 35°57' W 005°21'9 9.4
2017-Feb-23 04:33N 35°55' W 005°33'244 7.2
2017-Feb-21 18:32N 38°02' W 009°55'8 8.6
2017-Feb-21 17:33N 38°10' W 009°57'9 8.6
2017-Feb-21 16:33N 38°19' W 009°59'9 8.7
2017-Feb-21 15:33N 38°27' W 010°01'8 8.4
2017-Feb-21 14:33N 38°35' W 010°04'9 8.6
2017-Feb-21 13:32N 38°44' W 010°06'9 9.0
2017-Feb-21 12:33N 38°53' W 010°07'9 8.8
2017-Feb-21 11:33N 39°01' W 010°07'9 8.7
2017-Feb-21 10:33N 39°10' W 010°07'9 9.0
2017-Feb-21 09:30N 39°20' W 010°06'9 9.0
2017-Feb-21 08:33N 39°28' W 010°06'10 9.6
2017-Feb-21 07:33N 39°38' W 010°06'  
2017-Feb-18 09:34N 48°53' W 005°50'15 7.6
2017-Feb-18 07:33N 49°01' W 005°30'15 7.4
2017-Feb-18 05:33N 49°09' W 005°11'70 8.8
2017-Feb-17 21:33N 49°43' W 003°37'8 8.3
2017-Feb-17 20:33N 49°48' W 003°26'9 8.9
2017-Feb-17 19:33N 49°53' W 003°14'10 9.8
2017-Feb-17 18:34N 49°58' W 003°01'1110.6
2017-Feb-17 17:33N 50°01' W 002°45'1310.7
2017-Feb-17 16:17N 50°05' W 002°25'24 8.8
2017-Feb-17 13:32N 50°10' W 001°49'19 6.4
2017-Feb-17 10:33N 50°16' W 001°20'22 8.9
2017-Feb-17 08:07N 50°22' W 000°47'1710.6
2017-Feb-17 06:33N 50°27' W 000°22'1010.1
2017-Feb-17 05:34N 50°30' W 000°07'10 9.7
2017-Feb-17 04:33N 50°32' E 000°08'42 8.3
2017-Feb-16 23:31N 50°53' E 001°06'1010.3
2017-Feb-16 22:33N 50°59' E 001°17'1111.0
2017-Feb-16 21:33N 51°06' E 001°31'10 9.8
2017-Feb-16 20:34N 51°12' E 001°42'9 8.6
2017-Feb-16 19:34N 51°20' E 001°50'8 7.5
2017-Feb-16 18:33N 51°26' E 001°56'7 7.0
2017-Feb-16 17:33N 51°32' E 002°04'7 6.9
2017-Feb-16 16:31N 51°37' E 002°11'115 8.3
2017-Feb-16 02:33N 53°05' E 004°13'9 8.7
2017-Feb-16 01:32N 53°11' E 004°24'8 8.6
2017-Feb-16 00:33N 53°19' E 004°30'8 8.2
2017-Feb-15 23:32N 53°26' E 004°36'8 7.9
2017-Feb-15 22:33N 53°30' E 004°47'17 7.5
2017-Feb-15 20:19N 53°36' E 005°14'85 8.7
2017-Feb-15 10:33N 54°01' E 007°31'8 7.9
2017-Feb-15 09:34N 54°02' E 007°45'10 8.9
2017-Feb-15 08:29N 54°01' E 008°01'2310.8
2017-Feb-15 06:21N 53°57' E 008°39'910.9
2017-Feb-15 05:33N 53°50' E 008°50'9 9.0
2017-Feb-15 04:33N 53°52' E 009°04'7 7.4
2017-Feb-15 03:34N 53°52' E 009°17'7 6.7
2017-Feb-15 02:33N 53°47' E 009°24'6 6.3
2017-Feb-15 01:34N 53°42' E 009°30'7 7.4
2017-Feb-15 00:34N 53°35' E 009°37'1010.2
2017-Feb-14 23:34N 53°33' E 009°53'4 3.5
2017-Feb-14 22:33N 53°30' E 009°57'0 0.0
2017-Feb-14 21:33N 53°30' E 009°57'0 0.0
2017-Feb-14 20:30N 53°30' E 009°57'0 0.0
2017-Feb-14 19:33N 53°30' E 009°57'0 0.0
2017-Feb-14 18:33N 53°30' E 009°57'0 0.0
2017-Feb-14 17:33N 53°30' E 009°57'0 0.0
2017-Feb-14 16:30N 53°30' E 009°57'0 0.0
2017-Feb-14 15:33N 53°30' E 009°57'0 0.0
2017-Feb-14 14:33N 53°30' E 009°57'0 0.0
2017-Feb-14 13:33N 53°30' E 009°57'0 0.0
2017-Feb-14 12:27N 53°30' E 009°57'0 0.0
2017-Feb-14 11:33N 53°30' E 009°57'0 0.0
2017-Feb-14 10:33N 53°30' E 009°57'0 0.0
2017-Feb-14 09:21N 53°30' E 009°57'0 0.1
2017-Feb-14 08:33N 53°30' E 009°57'0 0.0
2017-Feb-14 07:33N 53°30' E 009°57'0 0.0
2017-Feb-14 06:33N 53°30' E 009°57'0 0.0
2017-Feb-14 05:33N 53°30' E 009°57'0 0.0
2017-Feb-14 04:27N 53°30' E 009°57'0 0.0
2017-Feb-14 03:33N 53°30' E 009°57'0 0.0
2017-Feb-14 02:33N 53°30' E 009°57'4 3.9
2017-Feb-14 01:33N 53°33' E 009°52'1110.7
2017-Feb-14 00:33N 53°36' E 009°35'10 9.8
2017-Feb-13 23:33N 53°44' E 009°26'8 8.2
2017-Feb-13 22:33N 53°51' E 009°19'7 7.3
2017-Feb-13 21:33N 53°53' E 009°07'7 6.8
2017-Feb-13 20:33N 53°51' E 008°55'6 5.7
2017-Feb-13 19:33N 53°51' E 008°46'6 5.8
2017-Feb-13 18:33N 53°55' E 008°40'7 6.5
2017-Feb-13 17:33N 53°58' E 008°30'7 7.1
2017-Feb-13 16:33N 53°59' E 008°18'8 8.0
2017-Feb-13 15:33N 53°59' E 008°04'6 5.5
2017-Feb-13 14:33N 53°58' E 007°55'6 5.6
2017-Feb-13 13:33N 53°56' E 007°46'  
Track history (hours):
 
Tides and Currents Weather Stations Pressure Air Temp Water Temp Dewpoint Dewpoint Depression Visibility Wind Speed Wind Dir Waves Ship Positions

Priwall

Last reported at 2017-Feb-23 11:18 UTC. Time now 2017-Feb-24 00:00 UTC.
Position N 35°56' W 005°08'.

Length 88 m; draft 5.6 m.

Type: Ship. MMSI: 304739000.

Date/timePositionNaut miles runAvg speedWind from/ knotsBaromVisibWave heightAir tempDewpointWater temp
2017-Feb-23 11:18N 35°56' W 005°08'7 9.7
2017-Feb-23 10:33N 35°55' W 005°17'2 2.2
2017-Feb-23 09:33N 35°54' W 005°19'0 0.0
2017-Feb-23 08:33N 35°54' W 005°19'0 0.0
2017-Feb-23 07:33N 35°54' W 005°19'0 0.2
2017-Feb-23 06:33N 35°54' W 005°19'3 3.3
2017-Feb-23 05:33N 35°57' W 005°21'9 9.4
2017-Feb-23 04:33N 35°55' W 005°33'244 7.2
2017-Feb-21 18:32N 38°02' W 009°55'8 8.6
2017-Feb-21 17:33N 38°10' W 009°57'9 8.6
2017-Feb-21 16:33N 38°19' W 009°59'9 8.7
2017-Feb-21 15:33N 38°27' W 010°01'8 8.4
2017-Feb-21 14:33N 38°35' W 010°04'9 8.6
2017-Feb-21 13:32N 38°44' W 010°06'9 9.0
2017-Feb-21 12:33N 38°53' W 010°07'9 8.8
2017-Feb-21 11:33N 39°01' W 010°07'9 8.7
2017-Feb-21 10:33N 39°10' W 010°07'9 9.0
2017-Feb-21 09:30N 39°20' W 010°06'9 9.0
2017-Feb-21 08:33N 39°28' W 010°06'10 9.6
2017-Feb-21 07:33N 39°38' W 010°06'  
2017-Feb-18 09:34N 48°53' W 005°50'15 7.6
2017-Feb-18 07:33N 49°01' W 005°30'15 7.4
2017-Feb-18 05:33N 49°09' W 005°11'70 8.8
2017-Feb-17 21:33N 49°43' W 003°37'8 8.3
2017-Feb-17 20:33N 49°48' W 003°26'9 8.9
2017-Feb-17 19:33N 49°53' W 003°14'10 9.8
2017-Feb-17 18:34N 49°58' W 003°01'1110.6
2017-Feb-17 17:33N 50°01' W 002°45'1310.7
2017-Feb-17 16:17N 50°05' W 002°25'24 8.8
2017-Feb-17 13:32N 50°10' W 001°49'19 6.4
2017-Feb-17 10:33N 50°16' W 001°20'22 8.9
2017-Feb-17 08:07N 50°22' W 000°47'1710.6
2017-Feb-17 06:33N 50°27' W 000°22'1010.1
2017-Feb-17 05:34N 50°30' W 000°07'10 9.7
2017-Feb-17 04:33N 50°32' E 000°08'42 8.3
2017-Feb-16 23:31N 50°53' E 001°06'1010.3
2017-Feb-16 22:33N 50°59' E 001°17'1111.0
2017-Feb-16 21:33N 51°06' E 001°31'10 9.8
2017-Feb-16 20:34N 51°12' E 001°42'9 8.6
2017-Feb-16 19:34N 51°20' E 001°50'8 7.5
2017-Feb-16 18:33N 51°26' E 001°56'7 7.0
2017-Feb-16 17:33N 51°32' E 002°04'7 6.9
2017-Feb-16 16:31N 51°37' E 002°11'115 8.3
2017-Feb-16 02:33N 53°05' E 004°13'9 8.7
2017-Feb-16 01:32N 53°11' E 004°24'8 8.6
2017-Feb-16 00:33N 53°19' E 004°30'8 8.2
2017-Feb-15 23:32N 53°26' E 004°36'8 7.9
2017-Feb-15 22:33N 53°30' E 004°47'17 7.5
2017-Feb-15 20:19N 53°36' E 005°14'85 8.7
2017-Feb-15 10:33N 54°01' E 007°31'8 7.9
2017-Feb-15 09:34N 54°02' E 007°45'10 8.9
2017-Feb-15 08:29N 54°01' E 008°01'2310.8
2017-Feb-15 06:21N 53°57' E 008°39'910.9
2017-Feb-15 05:33N 53°50' E 008°50'9 9.0
2017-Feb-15 04:33N 53°52' E 009°04'7 7.4
2017-Feb-15 03:34N 53°52' E 009°17'7 6.7
2017-Feb-15 02:33N 53°47' E 009°24'6 6.3
2017-Feb-15 01:34N 53°42' E 009°30'7 7.4
2017-Feb-15 00:34N 53°35' E 009°37'1010.2
2017-Feb-14 23:34N 53°33' E 009°53'4 3.5
2017-Feb-14 22:33N 53°30' E 009°57'0 0.0
2017-Feb-14 21:33N 53°30' E 009°57'0 0.0
2017-Feb-14 20:30N 53°30' E 009°57'0 0.0
2017-Feb-14 19:33N 53°30' E 009°57'0 0.0
2017-Feb-14 18:33N 53°30' E 009°57'0 0.0
2017-Feb-14 17:33N 53°30' E 009°57'0 0.0
2017-Feb-14 16:30N 53°30' E 009°57'0 0.0
2017-Feb-14 15:33N 53°30' E 009°57'0 0.0
2017-Feb-14 14:33N 53°30' E 009°57'0 0.0
2017-Feb-14 13:33N 53°30' E 009°57'0 0.0
2017-Feb-14 12:27N 53°30' E 009°57'0 0.0
2017-Feb-14 11:33N 53°30' E 009°57'0 0.0
2017-Feb-14 10:33N 53°30' E 009°57'0 0.0
2017-Feb-14 09:21N 53°30' E 009°57'0 0.1
2017-Feb-14 08:33N 53°30' E 009°57'0 0.0
2017-Feb-14 07:33N 53°30' E 009°57'0 0.0
2017-Feb-14 06:33N 53°30' E 009°57'0 0.0
2017-Feb-14 05:33N 53°30' E 009°57'0 0.0
2017-Feb-14 04:27N 53°30' E 009°57'0 0.0
2017-Feb-14 03:33N 53°30' E 009°57'0 0.0
2017-Feb-14 02:33N 53°30' E 009°57'4 3.9
2017-Feb-14 01:33N 53°33' E 009°52'1110.7
2017-Feb-14 00:33N 53°36' E 009°35'10 9.8
2017-Feb-13 23:33N 53°44' E 009°26'8 8.2
2017-Feb-13 22:33N 53°51' E 009°19'7 7.3
2017-Feb-13 21:33N 53°53' E 009°07'7 6.8
2017-Feb-13 20:33N 53°51' E 008°55'6 5.7
2017-Feb-13 19:33N 53°51' E 008°46'6 5.8
2017-Feb-13 18:33N 53°55' E 008°40'7 6.5
2017-Feb-13 17:33N 53°58' E 008°30'7 7.1
2017-Feb-13 16:33N 53°59' E 008°18'8 8.0
2017-Feb-13 15:33N 53°59' E 008°04'6 5.5
2017-Feb-13 14:33N 53°58' E 007°55'6 5.6
2017-Feb-13 13:33N 53°56' E 007°46'  

Dump ship's entire track history